createdAt,value
2023-05-19T00:00:15.469Z,23.29
2023-05-19T00:02:42.137Z,23.27
2023-05-19T00:05:08.812Z,23.27
2023-05-19T00:07:35.403Z,23.26
2023-05-19T00:10:01.998Z,23.25
2023-05-19T00:12:28.616Z,23.25
2023-05-19T00:14:55.234Z,23.25
2023-05-19T00:17:21.836Z,23.25
2023-05-19T00:19:48.437Z,23.23
2023-05-19T00:22:15.011Z,23.24
2023-05-19T00:24:41.600Z,23.24
2023-05-19T00:27:08.221Z,23.23
2023-05-19T00:29:34.818Z,23.22
2023-05-19T00:32:01.447Z,23.23
2023-05-19T00:34:28.058Z,23.21
2023-05-19T00:36:54.652Z,23.21
2023-05-19T00:39:21.244Z,23.20
2023-05-19T00:41:47.837Z,23.20
2023-05-19T00:44:14.416Z,23.19
2023-05-19T00:46:41.017Z,23.19
2023-05-19T00:49:07.638Z,23.18
2023-05-19T00:51:34.223Z,23.19
2023-05-19T00:54:00.816Z,23.18
2023-05-19T00:56:27.404Z,23.16
2023-05-19T00:58:53.996Z,23.18
2023-05-19T01:01:20.631Z,23.18
2023-05-19T01:03:47.408Z,23.18
2023-05-19T01:06:14.085Z,23.16
2023-05-19T01:08:40.673Z,23.17
2023-05-19T01:11:07.287Z,23.15
2023-05-19T01:13:33.895Z,23.16
2023-05-19T01:16:00.531Z,23.16
2023-05-19T01:18:27.207Z,23.15
2023-05-19T01:20:53.808Z,23.16
2023-05-19T01:23:20.397Z,23.16
2023-05-19T01:25:47.007Z,23.13
2023-05-19T01:28:13.585Z,23.14
2023-05-19T01:30:40.194Z,23.13
2023-05-19T01:33:06.893Z,23.13
2023-05-19T01:35:33.555Z,23.12
2023-05-19T01:38:00.186Z,23.12
2023-05-19T01:40:26.781Z,23.14
2023-05-19T01:42:54.264Z,23.12
2023-05-19T01:45:21.639Z,23.10
2023-05-19T01:47:48.270Z,23.11
2023-05-19T01:50:14.887Z,23.10
2023-05-19T01:52:41.470Z,23.10
2023-05-19T01:55:08.076Z,23.10
2023-05-19T01:57:34.668Z,23.09
2023-05-19T02:00:01.275Z,23.10
2023-05-19T02:02:27.891Z,23.08
2023-05-19T02:04:54.595Z,23.08
2023-05-19T02:07:21.302Z,23.08
2023-05-19T02:09:47.922Z,23.07
2023-05-19T02:12:14.493Z,23.06
2023-05-19T02:14:41.089Z,23.06
2023-05-19T02:17:07.692Z,23.05
2023-05-19T02:19:34.331Z,23.05
2023-05-19T02:22:00.919Z,23.05
2023-05-19T02:24:27.511Z,23.05
2023-05-19T02:26:54.157Z,23.05
2023-05-19T02:29:20.781Z,23.05
2023-05-19T02:31:47.531Z,23.04
2023-05-19T02:34:14.181Z,23.04
2023-05-19T02:36:40.774Z,23.04
2023-05-19T02:39:07.375Z,23.03
2023-05-19T02:41:33.977Z,23.02
2023-05-19T02:44:00.554Z,23.02
2023-05-19T02:46:27.160Z,22.99
2023-05-19T02:48:53.763Z,23.00
2023-05-19T02:51:20.345Z,23.00
2023-05-19T02:53:46.928Z,23.00
2023-05-19T02:56:13.513Z,22.98
2023-05-19T02:58:40.094Z,22.98
2023-05-19T03:01:06.714Z,22.98
2023-05-19T03:03:33.366Z,22.96
2023-05-19T03:06:00.032Z,22.96
2023-05-19T03:08:26.652Z,22.96
2023-05-19T03:10:53.212Z,22.95
2023-05-19T03:13:19.799Z,22.94
2023-05-19T03:15:46.397Z,22.95
2023-05-19T03:18:13.008Z,22.94
2023-05-19T03:20:41.581Z,22.94
2023-05-19T03:23:08.306Z,22.93
2023-05-19T03:25:34.908Z,22.93
2023-05-19T03:28:01.511Z,22.91
2023-05-19T03:30:28.108Z,22.91
2023-05-19T03:32:54.755Z,22.92
2023-05-19T03:35:21.397Z,22.92
2023-05-19T03:37:47.983Z,22.91
2023-05-19T03:40:14.565Z,22.90
2023-05-19T03:42:41.142Z,22.90
2023-05-19T03:45:07.721Z,22.89
2023-05-19T03:47:34.305Z,22.90
2023-05-19T03:50:00.882Z,22.90
2023-05-19T03:52:27.488Z,22.90
2023-05-19T03:54:54.089Z,22.89
2023-05-19T03:57:20.686Z,22.89
2023-05-19T03:59:47.260Z,22.90
2023-05-19T04:02:13.918Z,22.88
2023-05-19T04:04:40.565Z,22.88
2023-05-19T04:07:07.201Z,22.89
2023-05-19T04:09:33.788Z,22.88
2023-05-19T04:12:00.394Z,22.88
2023-05-19T04:14:26.965Z,22.87
2023-05-19T04:16:53.565Z,22.86
2023-05-19T04:19:20.229Z,22.85
2023-05-19T04:21:46.833Z,22.85
2023-05-19T04:24:13.440Z,22.83
2023-05-19T04:26:40.027Z,22.84
2023-05-19T04:29:06.609Z,22.85
2023-05-19T04:31:33.349Z,22.85
2023-05-19T04:33:59.947Z,22.82
2023-05-19T04:36:26.538Z,22.82
2023-05-19T04:38:53.155Z,22.83
2023-05-19T04:41:19.727Z,22.83
2023-05-19T04:43:46.298Z,22.83
2023-05-19T04:46:13.819Z,22.81
2023-05-19T04:48:40.770Z,22.82
2023-05-19T04:51:07.368Z,22.82
2023-05-19T04:53:33.972Z,22.82
2023-05-19T04:56:00.569Z,22.82
2023-05-19T04:58:27.140Z,22.83
2023-05-19T05:00:53.719Z,22.83
2023-05-19T05:03:20.347Z,22.82
2023-05-19T05:05:46.982Z,22.84
2023-05-19T05:08:13.571Z,22.83
2023-05-19T05:10:42.913Z,22.84
2023-05-19T05:13:11.192Z,22.83
2023-05-19T05:15:38.453Z,22.84
2023-05-19T05:18:05.129Z,22.84
2023-05-19T05:20:32.014Z,22.85
2023-05-19T05:22:58.775Z,22.83
2023-05-19T05:25:25.380Z,22.83
2023-05-19T05:27:51.965Z,22.85
2023-05-19T05:30:18.557Z,22.85
2023-05-19T05:32:45.296Z,22.84
2023-05-19T05:35:11.948Z,22.84
2023-05-19T05:37:38.545Z,22.85
2023-05-19T05:40:05.185Z,22.85
2023-05-19T05:42:31.864Z,22.84
2023-05-19T05:44:58.491Z,22.85
2023-05-19T05:47:25.133Z,22.86
2023-05-19T05:49:53.442Z,22.86
2023-05-19T05:52:20.264Z,22.86
2023-05-19T05:54:46.842Z,22.88
2023-05-19T05:57:13.423Z,22.89
2023-05-19T05:59:40.023Z,22.88
2023-05-19T06:02:06.671Z,22.91
2023-05-19T06:04:33.256Z,22.91
2023-05-19T06:06:59.865Z,22.91
2023-05-19T06:09:26.511Z,22.89
2023-05-19T06:11:53.132Z,22.88
2023-05-19T06:14:19.721Z,22.90
2023-05-19T06:16:46.302Z,22.90
2023-05-19T06:19:13.357Z,22.93
2023-05-19T06:21:40.004Z,22.95
2023-05-19T06:24:06.600Z,22.95
2023-05-19T06:26:33.173Z,22.94
2023-05-19T06:28:59.803Z,22.96
2023-05-19T06:31:26.444Z,22.97
2023-05-19T06:33:53.143Z,22.96
2023-05-19T06:36:19.739Z,22.97
2023-05-19T06:38:46.319Z,22.98
2023-05-19T06:41:12.895Z,22.97
2023-05-19T06:43:39.487Z,23.00
2023-05-19T06:46:06.151Z,23.01
2023-05-19T06:48:32.724Z,23.03
2023-05-19T06:50:59.314Z,23.02
2023-05-19T06:53:25.909Z,23.04
2023-05-19T06:55:59.217Z,23.04
2023-05-19T06:58:26.271Z,23.04
2023-05-19T07:00:52.867Z,23.04
2023-05-19T07:03:19.498Z,23.04
2023-05-19T07:05:46.212Z,23.04
2023-05-19T07:08:12.804Z,23.02
2023-05-19T07:10:39.392Z,23.01
2023-05-19T07:13:05.988Z,22.97
2023-05-19T07:15:32.581Z,22.96
2023-05-19T07:17:59.249Z,22.95
2023-05-19T07:20:25.974Z,22.95
2023-05-19T07:22:52.606Z,22.97
2023-05-19T07:25:19.225Z,22.98
2023-05-19T07:27:45.814Z,22.99
2023-05-19T07:30:12.378Z,23.00
2023-05-19T07:32:39.009Z,23.02
2023-05-19T07:35:05.621Z,23.01
2023-05-19T07:37:32.227Z,23.02
2023-05-19T07:39:58.794Z,23.00
2023-05-19T07:42:25.406Z,23.02
2023-05-19T07:44:52.018Z,23.03
2023-05-19T07:47:18.610Z,23.02
2023-05-19T07:49:45.221Z,23.04
2023-05-19T07:52:11.820Z,23.06
2023-05-19T07:54:38.391Z,23.07
2023-05-19T07:57:04.983Z,23.06
2023-05-19T07:59:31.587Z,23.08
2023-05-19T08:01:58.327Z,23.09
2023-05-19T08:04:25.014Z,23.10
2023-05-19T08:06:51.612Z,23.10
2023-05-19T08:09:18.188Z,23.11
2023-05-19T08:11:44.774Z,23.10
2023-05-19T08:14:11.383Z,23.12
2023-05-19T08:16:37.953Z,23.14
2023-05-19T08:19:04.584Z,23.13
2023-05-19T08:21:31.226Z,23.13
2023-05-19T08:23:57.801Z,23.13
2023-05-19T08:26:24.371Z,23.13
2023-05-19T08:28:50.955Z,23.14
2023-05-19T08:31:17.613Z,23.15
2023-05-19T08:33:44.235Z,23.17
2023-05-19T08:36:10.832Z,23.18
2023-05-19T08:38:37.427Z,23.18
2023-05-19T08:41:04.052Z,23.19
2023-05-19T08:43:30.649Z,23.18
2023-05-19T08:45:57.233Z,23.21
2023-05-19T08:48:23.831Z,23.21
2023-05-19T08:50:50.436Z,23.23
2023-05-19T08:53:31.799Z,23.22
2023-05-19T08:55:59.533Z,23.26
2023-05-19T08:58:26.871Z,23.25
2023-05-19T09:00:55.292Z,23.24
2023-05-19T09:03:24.015Z,23.22
2023-05-19T09:05:50.876Z,23.22
2023-05-19T09:08:17.520Z,23.23
2023-05-19T09:10:44.140Z,23.26
2023-05-19T09:13:10.737Z,23.29
2023-05-19T09:15:37.333Z,23.27
2023-05-19T09:18:04.000Z,23.28
2023-05-19T09:20:30.640Z,23.29
2023-05-19T09:22:57.234Z,23.33
2023-05-19T09:25:23.839Z,23.36
2023-05-19T09:27:50.419Z,23.37
2023-05-19T09:30:17.030Z,23.38
2023-05-19T09:32:44.752Z,23.37
2023-05-19T09:35:11.391Z,23.41
2023-05-19T09:37:38.063Z,23.42
2023-05-19T09:40:04.829Z,23.39
2023-05-19T09:42:31.441Z,23.39
2023-05-19T09:44:58.047Z,23.38
2023-05-19T09:47:24.668Z,23.37
2023-05-19T09:49:51.275Z,23.38
2023-05-19T09:52:17.871Z,23.39
2023-05-19T09:54:44.452Z,23.40
2023-05-19T09:57:11.021Z,23.38
2023-05-19T09:59:37.623Z,23.38
2023-05-19T10:02:04.236Z,23.41
2023-05-19T10:04:30.953Z,23.39
2023-05-19T10:06:57.576Z,23.33
2023-05-19T10:09:24.166Z,23.29
2023-05-19T10:11:50.749Z,23.34
2023-05-19T10:14:17.334Z,23.37
2023-05-19T10:16:43.950Z,23.38
2023-05-19T10:19:10.679Z,23.42
2023-05-19T10:21:37.335Z,23.41
2023-05-19T10:24:04.022Z,23.41
2023-05-19T10:26:30.615Z,23.42
2023-05-19T10:28:57.210Z,23.45
2023-05-19T10:31:23.782Z,23.48
2023-05-19T10:33:50.370Z,23.49
2023-05-19T10:36:16.943Z,23.49
2023-05-19T10:38:43.580Z,23.49
2023-05-19T10:41:11.255Z,23.50
2023-05-19T10:43:37.847Z,23.52
2023-05-19T10:46:04.450Z,23.54
2023-05-19T10:48:31.060Z,23.55
2023-05-19T10:50:57.663Z,23.55
2023-05-19T10:53:24.268Z,23.56
2023-05-19T10:55:50.861Z,23.58
2023-05-19T10:58:17.528Z,23.59
2023-05-19T11:00:44.108Z,23.60
2023-05-19T11:03:10.915Z,23.61
2023-05-19T11:05:37.545Z,23.62
2023-05-19T11:08:04.130Z,23.60
2023-05-19T11:10:30.739Z,23.62
2023-05-19T11:15:24.643Z,23.63
2023-05-19T11:17:51.259Z,23.64
2023-05-19T11:20:17.886Z,23.67
2023-05-19T11:22:44.485Z,23.67
2023-05-19T11:25:11.120Z,23.69
2023-05-19T11:27:37.732Z,23.70
2023-05-19T11:30:04.373Z,23.71
2023-05-19T11:32:31.107Z,23.73
2023-05-19T11:34:57.780Z,23.76
2023-05-19T11:37:24.378Z,23.76
2023-05-19T11:39:50.983Z,23.76
2023-05-19T11:42:17.625Z,23.71
2023-05-19T11:44:44.226Z,23.74
2023-05-19T11:47:10.810Z,23.77
2023-05-19T11:49:37.419Z,23.76
2023-05-19T11:52:04.029Z,23.78
2023-05-19T11:54:30.644Z,23.79
2023-05-19T11:56:57.447Z,23.80
2023-05-19T11:59:24.043Z,23.82
2023-05-19T12:01:50.645Z,23.83
2023-05-19T12:04:17.241Z,23.83
2023-05-19T12:06:43.912Z,23.85
2023-05-19T12:09:10.567Z,23.86
2023-05-19T12:11:37.153Z,23.87
2023-05-19T12:14:03.781Z,23.87
2023-05-19T12:16:31.874Z,23.86
2023-05-19T12:18:59.858Z,23.86
2023-05-19T12:21:33.874Z,23.87
2023-05-19T12:24:01.112Z,23.86
2023-05-19T12:26:27.682Z,23.88
2023-05-19T12:28:54.275Z,23.88
2023-05-19T12:31:20.889Z,23.88
2023-05-19T12:33:47.536Z,23.90
2023-05-19T12:36:14.152Z,23.90
2023-05-19T12:38:40.753Z,23.95
2023-05-19T12:41:07.351Z,23.94
2023-05-19T12:43:33.935Z,23.92
2023-05-19T12:46:00.560Z,23.93
2023-05-19T12:48:27.252Z,23.94
2023-05-19T12:50:53.888Z,23.94
2023-05-19T12:53:20.500Z,23.93
2023-05-19T12:55:47.117Z,23.92
2023-05-19T12:58:14.249Z,23.93
2023-05-19T13:00:40.886Z,23.93
2023-05-19T13:03:07.771Z,23.92
2023-05-19T13:05:34.489Z,23.95
2023-05-19T13:08:01.136Z,23.94
2023-05-19T13:10:27.751Z,23.96
2023-05-19T13:12:54.356Z,23.98
2023-05-19T13:15:20.968Z,23.98
2023-05-19T13:17:47.607Z,23.95
2023-05-19T13:20:14.365Z,23.96
2023-05-19T13:22:41.073Z,23.97
2023-05-19T13:25:07.706Z,23.97
2023-05-19T13:27:34.305Z,23.98
2023-05-19T13:30:00.905Z,23.98
2023-05-19T13:32:27.484Z,23.99
2023-05-19T13:34:54.066Z,24.00
2023-05-19T13:37:20.710Z,23.93
2023-05-19T13:39:47.339Z,23.94
2023-05-19T13:42:13.928Z,23.96
2023-05-19T13:44:40.522Z,23.97
2023-05-19T13:47:07.148Z,23.98
2023-05-19T13:49:33.811Z,23.98
2023-05-19T13:52:00.396Z,24.03
2023-05-19T13:54:27.028Z,24.01
2023-05-19T13:56:53.668Z,24.05
2023-05-19T13:59:20.280Z,24.05
2023-05-19T14:01:46.945Z,24.05
2023-05-19T14:04:13.710Z,24.00
2023-05-19T14:06:40.374Z,23.95
2023-05-19T14:09:06.961Z,23.95
2023-05-19T14:11:33.591Z,23.97
2023-05-19T14:14:00.315Z,23.97
2023-05-19T14:16:26.956Z,23.98
2023-05-19T14:18:53.575Z,23.99
2023-05-19T14:21:20.214Z,23.99
2023-05-19T14:23:46.815Z,24.03
2023-05-19T14:26:13.434Z,24.03
2023-05-19T14:28:40.034Z,23.96
2023-05-19T14:31:06.665Z,23.96
2023-05-19T14:33:35.625Z,23.93
2023-05-19T14:36:02.456Z,23.99
2023-05-19T14:38:29.587Z,24.01
2023-05-19T14:40:56.346Z,23.99
2023-05-19T14:43:22.931Z,24.02
2023-05-19T14:45:49.522Z,24.04
2023-05-19T14:48:16.146Z,24.03
2023-05-19T14:50:42.824Z,24.01
2023-05-19T14:53:09.406Z,24.01
2023-05-19T14:55:36.016Z,23.97
2023-05-19T14:58:04.519Z,23.93
2023-05-19T15:00:34.645Z,23.95
2023-05-19T15:03:01.523Z,23.91
2023-05-19T15:05:28.139Z,23.87
2023-05-19T15:07:54.722Z,23.72
2023-05-19T15:10:21.412Z,23.65
2023-05-19T15:12:47.996Z,23.60
2023-05-19T15:15:14.613Z,23.64
2023-05-19T15:17:41.278Z,23.60
2023-05-19T15:20:07.885Z,23.51
2023-05-19T15:22:34.605Z,23.64
2023-05-19T15:25:01.235Z,23.77
2023-05-19T15:27:27.853Z,23.79
2023-05-19T15:29:54.429Z,23.78
2023-05-19T15:32:21.026Z,23.78
2023-05-19T15:34:47.691Z,23.80
2023-05-19T15:37:14.274Z,23.81
2023-05-19T15:39:40.904Z,23.77
2023-05-19T15:42:07.489Z,23.73
2023-05-19T15:44:34.120Z,23.72
2023-05-19T15:47:00.805Z,23.73
2023-05-19T15:49:27.402Z,23.68
2023-05-19T15:51:54.002Z,23.65
2023-05-19T15:54:20.584Z,23.66
2023-05-19T15:56:47.187Z,23.66
2023-05-19T15:59:13.788Z,23.63
2023-05-19T16:01:40.383Z,23.70
2023-05-19T16:04:07.171Z,23.59
2023-05-19T16:06:33.852Z,23.67
2023-05-19T16:09:00.448Z,23.76
2023-05-19T16:11:27.185Z,23.86
2023-05-19T16:13:53.778Z,23.81
2023-05-19T16:16:20.397Z,23.74
2023-05-19T16:18:47.079Z,23.67
2023-05-19T16:21:13.697Z,23.69
2023-05-19T16:23:40.280Z,23.73
2023-05-19T16:26:06.904Z,23.72
2023-05-19T16:28:33.522Z,23.75
2023-05-19T16:31:00.150Z,23.77
2023-05-19T16:33:26.784Z,23.72
2023-05-19T16:35:53.427Z,23.65
2023-05-19T16:38:20.001Z,23.65
2023-05-19T16:40:46.598Z,23.67
2023-05-19T16:43:13.204Z,23.64
2023-05-19T16:45:39.860Z,23.63
2023-05-19T16:48:06.535Z,23.69
2023-05-19T16:50:33.327Z,23.69
2023-05-19T16:52:59.976Z,23.72
2023-05-19T16:55:26.770Z,23.76
2023-05-19T16:57:53.413Z,23.77
2023-05-19T17:00:20.075Z,23.77
2023-05-19T17:02:46.782Z,23.78
2023-05-19T17:05:13.488Z,23.78
2023-05-19T17:07:40.098Z,23.77
2023-05-19T17:10:06.687Z,23.77
2023-05-19T17:12:33.275Z,23.78
2023-05-19T17:14:59.854Z,23.78
2023-05-19T17:17:26.510Z,23.79
2023-05-19T17:19:53.165Z,23.78
2023-05-19T17:22:19.772Z,23.79
2023-05-19T17:24:46.354Z,23.77
2023-05-19T17:27:12.941Z,23.74
2023-05-19T17:29:39.524Z,23.77
2023-05-19T17:32:06.159Z,23.78
2023-05-19T17:34:32.811Z,23.80
2023-05-19T17:36:59.393Z,23.81
2023-05-19T17:39:25.976Z,23.81
2023-05-19T17:41:52.614Z,23.80
2023-05-19T17:44:19.239Z,23.79
2023-05-19T17:46:45.882Z,23.80
2023-05-19T17:49:12.552Z,23.79
2023-05-19T17:51:39.141Z,23.78
2023-05-19T17:54:05.739Z,23.77
2023-05-19T17:56:32.365Z,23.78
2023-05-19T17:58:58.940Z,23.79
2023-05-19T18:01:25.550Z,23.79
2023-05-19T18:03:52.317Z,23.79
2023-05-19T18:06:19.000Z,23.78
2023-05-19T18:08:45.590Z,23.77
2023-05-19T18:11:12.174Z,23.78
2023-05-19T18:13:38.789Z,23.78
2023-05-19T18:16:05.411Z,23.79
2023-05-19T18:18:32.068Z,23.78
2023-05-19T18:20:58.679Z,23.76
2023-05-19T18:23:25.276Z,23.73
2023-05-19T18:25:51.864Z,23.75
2023-05-19T18:28:18.507Z,23.77
2023-05-19T18:30:45.102Z,23.77
2023-05-19T18:33:11.699Z,23.76
2023-05-19T18:35:38.295Z,23.77
2023-05-19T18:38:04.886Z,23.75
2023-05-19T18:40:31.760Z,23.75
2023-05-19T18:42:58.461Z,23.75
2023-05-19T18:45:25.065Z,23.74
2023-05-19T18:47:51.721Z,23.73
2023-05-19T18:50:18.323Z,23.71
2023-05-19T18:52:44.922Z,23.70
2023-05-19T18:55:11.550Z,23.72
2023-05-19T18:57:38.130Z,23.70
2023-05-19T19:00:04.698Z,23.75
2023-05-19T19:02:31.347Z,23.74
2023-05-19T19:04:58.016Z,23.73
2023-05-19T19:07:24.706Z,23.74
2023-05-19T19:09:51.316Z,23.74
2023-05-19T19:12:19.086Z,23.77
2023-05-19T19:14:46.905Z,23.90
2023-05-19T19:17:13.655Z,23.94
2023-05-19T19:19:40.453Z,23.96
2023-05-19T19:22:07.096Z,23.93
2023-05-19T19:24:33.733Z,23.90
2023-05-19T19:27:00.305Z,23.94
2023-05-19T19:29:26.916Z,23.96
2023-05-19T19:31:53.570Z,24.00
2023-05-19T19:34:20.195Z,23.99
2023-05-19T19:36:46.814Z,24.01
2023-05-19T19:39:13.394Z,23.98
2023-05-19T19:41:39.981Z,24.00
2023-05-19T19:44:06.560Z,24.02
2023-05-19T19:46:33.183Z,24.02
2023-05-19T19:48:59.844Z,24.02
2023-05-19T19:51:26.444Z,24.01
2023-05-19T19:53:53.021Z,24.02
2023-05-19T19:56:19.608Z,23.99
2023-05-19T19:58:46.196Z,24.01
2023-05-19T20:01:12.790Z,24.01
2023-05-19T20:03:39.515Z,24.01
2023-05-19T20:06:06.165Z,24.01
2023-05-19T20:08:32.776Z,24.01
2023-05-19T20:10:59.340Z,24.00
2023-05-19T20:13:25.918Z,24.01
2023-05-19T20:15:52.567Z,24.01
2023-05-19T20:18:19.276Z,24.01
2023-05-19T20:20:45.869Z,24.01
2023-05-19T20:23:12.459Z,24.01
2023-05-19T20:25:41.107Z,24.01
2023-05-19T20:28:11.209Z,24.00
2023-05-19T20:30:37.808Z,23.99
2023-05-19T20:33:04.449Z,23.99
2023-05-19T20:35:31.211Z,23.98
2023-05-19T20:37:57.900Z,23.99
2023-05-19T20:40:24.475Z,23.98
2023-05-19T20:42:51.084Z,23.99
2023-05-19T20:45:17.687Z,23.99
2023-05-19T20:47:44.324Z,23.97
2023-05-19T20:50:10.901Z,23.95
2023-05-19T20:52:37.491Z,23.98
2023-05-19T20:55:04.105Z,23.97
2023-05-19T20:57:30.695Z,23.97
2023-05-19T20:59:57.284Z,23.96
2023-05-19T21:02:23.965Z,23.94
2023-05-19T21:04:50.620Z,23.93
2023-05-19T21:07:17.267Z,23.96
2023-05-19T21:09:43.887Z,23.94
2023-05-19T21:12:10.507Z,23.94
2023-05-19T21:14:37.109Z,23.94
2023-05-19T21:17:03.770Z,23.93
2023-05-19T21:19:30.465Z,23.92
2023-05-19T21:21:57.091Z,23.92
2023-05-19T21:24:23.677Z,23.91
2023-05-19T21:26:50.291Z,23.90
2023-05-19T21:29:16.871Z,23.91
2023-05-19T21:31:43.449Z,23.88
2023-05-19T21:34:10.031Z,23.88
2023-05-19T21:36:36.765Z,23.87
2023-05-19T21:39:03.412Z,23.87
2023-05-19T21:41:29.996Z,23.87
2023-05-19T21:43:56.569Z,23.87
2023-05-19T21:46:23.218Z,23.87
2023-05-19T21:48:49.844Z,23.87
2023-05-19T21:51:16.469Z,23.86
2023-05-19T21:53:43.081Z,23.86
2023-05-19T21:56:09.693Z,23.86
2023-05-19T21:58:36.333Z,23.84
2023-05-19T22:01:02.893Z,23.84
2023-05-19T22:03:29.601Z,23.83
2023-05-19T22:05:56.304Z,23.81
2023-05-19T22:08:22.903Z,23.81
2023-05-19T22:10:49.483Z,23.83
2023-05-19T22:13:16.069Z,23.83
2023-05-19T22:15:42.671Z,23.82
2023-05-19T22:18:09.373Z,23.81
2023-05-19T22:20:36.027Z,23.80
2023-05-19T22:23:02.605Z,23.80
2023-05-19T22:25:29.199Z,23.80
2023-05-19T22:27:55.786Z,23.78
2023-05-19T22:30:22.366Z,23.77
2023-05-19T22:32:49.144Z,23.76
2023-05-19T22:35:15.715Z,23.77
2023-05-19T22:37:42.332Z,23.75
2023-05-19T22:40:08.930Z,23.74
2023-05-19T22:42:35.531Z,23.74
2023-05-19T22:45:02.166Z,23.73
2023-05-19T22:47:28.785Z,23.73
2023-05-19T22:49:57.121Z,23.72
2023-05-19T22:52:23.928Z,23.72
2023-05-19T22:54:50.535Z,23.72
2023-05-19T22:57:17.227Z,23.70
2023-05-19T22:59:43.808Z,23.70
2023-05-19T23:02:10.378Z,23.70
2023-05-19T23:04:37.001Z,23.69
2023-05-19T23:07:03.648Z,23.69
2023-05-19T23:09:30.239Z,23.67
2023-05-19T23:11:56.826Z,23.66
2023-05-19T23:14:23.408Z,23.66
2023-05-19T23:16:50.035Z,23.65
2023-05-19T23:19:16.657Z,23.65
2023-05-19T23:21:43.330Z,23.65
2023-05-19T23:24:09.936Z,23.64
2023-05-19T23:26:36.528Z,23.64
2023-05-19T23:29:03.133Z,23.64
2023-05-19T23:31:29.813Z,23.65
2023-05-19T23:33:56.472Z,23.64
2023-05-19T23:36:23.066Z,23.64
2023-05-19T23:38:49.662Z,23.64
2023-05-19T23:41:16.287Z,23.63
2023-05-19T23:43:42.907Z,23.62
2023-05-19T23:46:09.579Z,23.62
2023-05-19T23:48:36.222Z,23.61
2023-05-19T23:51:02.795Z,23.61
2023-05-19T23:53:29.373Z,23.60
2023-05-19T23:55:56.549Z,23.62
2023-05-19T23:58:25.239Z,23.62
